Atlantic - Newfoundland: Past 24 Hour Conditions

 

St. Lawrence

12:30 PM NDT 16 April 2014
This table is a summary of hourly weather conditions for the past 24 hours.
Date / Time
(NDT)
Wind(knots) Conditions Visibility(km) Pressure(kPa) Air tempC) Relative humidity(%) Dew pointC)
16 April 2014
12:30 SSW 15 gust 20 N/A N/A 102.0 6 99 6
11:30 SSW 15 gust 22 N/A N/A 102.1 6 99 6
10:30 SSW 14 gust 20 N/A N/A 102.1 6 99 6
9:30 SW 17 gust 24 N/A N/A 102.1 7 99 7
8:30 SSW 14 gust 23 N/A N/A 102.1 6 99 6
7:30 SW 12 gust 17 N/A N/A 102.1 6 99 6
6:30 SW 12 gust 19 N/A N/A 102.1 5 99 5
5:30 SW 11 gust 23 N/A N/A 102.0 5 99 5
4:30 SW 15 gust 24 N/A N/A 102.0 7 98 6
3:30 SW 13 N/A N/A 102.1 7 99 7
2:30 SW 15 gust 22 N/A N/A 102.1 7 98 6
1:30 SW 14 N/A N/A 102.2 6 99 6
0:30 WSW 12 gust 17 N/A N/A 102.2 6 99 6
15 April 2014
23:30 WSW 11 N/A N/A 102.2 6 99 6
22:30 SW 4 N/A N/A 102.3 5 99 4
21:30 WSW 7 N/A N/A 102.3 4 99 4
20:30 WSW 3 N/A N/A 102.2 4 99 4
19:30 WSW 9 N/A N/A 102.2 5 98 4
18:30 WSW 12 N/A N/A 102.2 6 98 6
17:30 WSW 13 gust 20 N/A N/A 102.1 6 99 6
16:30 WSW 12 gust 17 N/A N/A 102.1 6 99 6
15:30 WSW 12 gust 17 N/A N/A 102.1 6 99 5
14:30 WSW 12 gust 19 N/A N/A 102.1 5 99 5
13:30 WSW 16 gust 21 N/A N/A 102.1 5 98 5
12:30 WSW 17 gust 22 N/A N/A 102.1 6 99 5
 
Map of Atlantic - Newfoundland marine weather areas Southwestern Grand Banks - 44138 Banquereau - 44139 Tail of the Bank - 44140 Nickerson Bank - 44251 Northeast Burgeo Bank - 44255 Blanc-Sablon Airport Cap Whittle Chevery Natashquan Airport Heath Point Miscou Island Grand Étang Ingonish Beach North Mountain St.Paul Island J.A. Douglas McCurdy Sydney Airport Charlottetown Airport East Point North Cape Argentia Bonavista Burgeo Cape Race Corner Brook Daniel's Harbour Englee Ferolle Point La Scie Port aux Basques Rocky Harbour Sagona Island St. Anthony Airport St. John's Int'l Airport St. Lawrence Stephenville Airport Twillingate Winterland Wreckhouse Cartwright Airport Mary's Harbour Grates Cove Pool's Island Marticot Island Long Pond Îles de la Madeleine Airport
Legend: buoyBuoy land stationLand Station